sensor_id;sensor_type;location;lat;lon;timestamp;P1;durP1;ratioP1;P2;durP2;ratioP2
71083;SDS011;58741;52.672;13.548;2023-08-20T00:00:28;3.42;;;2.10;;
71083;SDS011;58741;52.672;13.548;2023-08-20T00:03:04;2.70;;;2.20;;
71083;SDS011;58741;52.672;13.548;2023-08-20T00:05:39;3.90;;;2.45;;
71083;SDS011;58741;52.672;13.548;2023-08-20T00:08:05;3.15;;;2.05;;
71083;SDS011;58741;52.672;13.548;2023-08-20T00:10:31;2.13;;;1.85;;
71083;SDS011;58741;52.672;13.548;2023-08-20T00:12:57;1.90;;;1.70;;
71083;SDS011;58741;52.672;13.548;2023-08-20T00:15:23;3.42;;;2.30;;
71083;SDS011;58741;52.672;13.548;2023-08-20T00:17:52;3.20;;;1.98;;
71083;SDS011;58741;52.672;13.548;2023-08-20T00:20:18;2.20;;;1.55;;
71083;SDS011;58741;52.672;13.548;2023-08-20T00:22:44;2.75;;;2.08;;
71083;SDS011;58741;52.672;13.548;2023-08-20T00:25:14;2.33;;;2.10;;
71083;SDS011;58741;52.672;13.548;2023-08-20T00:27:41;3.42;;;1.70;;
71083;SDS011;58741;52.672;13.548;2023-08-20T00:30:08;3.13;;;2.22;;
71083;SDS011;58741;52.672;13.548;2023-08-20T00:32:35;2.40;;;2.20;;
71083;SDS011;58741;52.672;13.548;2023-08-20T00:35:01;2.75;;;2.28;;
71083;SDS011;58741;52.672;13.548;2023-08-20T00:37:28;3.33;;;2.25;;
71083;SDS011;58741;52.672;13.548;2023-08-20T00:39:54;2.50;;;2.30;;
71083;SDS011;58741;52.672;13.548;2023-08-20T00:42:19;3.78;;;2.45;;
71083;SDS011;58741;52.672;13.548;2023-08-20T00:44:45;2.35;;;1.90;;
71083;SDS011;58741;52.672;13.548;2023-08-20T00:47:11;2.53;;;2.33;;
71083;SDS011;58741;52.672;13.548;2023-08-20T00:49:38;5.65;;;2.70;;
71083;SDS011;58741;52.672;13.548;2023-08-20T00:52:05;3.00;;;2.22;;
71083;SDS011;58741;52.672;13.548;2023-08-20T00:54:33;2.85;;;2.35;;
71083;SDS011;58741;52.672;13.548;2023-08-20T00:57:00;2.83;;;2.15;;
71083;SDS011;58741;52.672;13.548;2023-08-20T00:59:27;3.05;;;2.33;;
71083;SDS011;58741;52.672;13.548;2023-08-20T01:01:57;2.55;;;2.35;;
71083;SDS011;58741;52.672;13.548;2023-08-20T01:04:23;3.15;;;2.20;;
71083;SDS011;58741;52.672;13.548;2023-08-20T01:12:13;4.40;;;2.35;;
71083;SDS011;58741;52.672;13.548;2023-08-20T01:14:39;6.38;;;2.80;;
71083;SDS011;58741;52.672;13.548;2023-08-20T01:17:05;2.20;;;2.00;;
71083;SDS011;58741;52.672;13.548;2023-08-20T01:19:31;2.55;;;2.28;;
71083;SDS011;58741;52.672;13.548;2023-08-20T01:22:21;2.95;;;2.10;;
71083;SDS011;58741;52.672;13.548;2023-08-20T01:28:03;3.90;;;2.50;;
71083;SDS011;58741;52.672;13.548;2023-08-20T01:30:50;3.53;;;2.60;;
71083;SDS011;58741;52.672;13.548;2023-08-20T01:33:17;3.05;;;2.40;;
71083;SDS011;58741;52.672;13.548;2023-08-20T01:35:43;3.53;;;2.35;;
71083;SDS011;58741;52.672;13.548;2023-08-20T01:38:15;3.90;;;2.42;;
71083;SDS011;58741;52.672;13.548;2023-08-20T01:40:41;4.15;;;2.67;;
71083;SDS011;58741;52.672;13.548;2023-08-20T01:43:06;2.95;;;2.00;;
71083;SDS011;58741;52.672;13.548;2023-08-20T01:45:32;4.15;;;2.42;;
71083;SDS011;58741;52.672;13.548;2023-08-20T01:47:58;3.15;;;2.30;;
71083;SDS011;58741;52.672;13.548;2023-08-20T01:50:23;3.33;;;2.38;;
71083;SDS011;58741;52.672;13.548;2023-08-20T01:52:49;2.97;;;2.50;;
71083;SDS011;58741;52.672;13.548;2023-08-20T01:55:15;3.63;;;2.70;;
71083;SDS011;58741;52.672;13.548;2023-08-20T01:57:40;3.63;;;2.60;;
71083;SDS011;58741;52.672;13.548;2023-08-20T02:00:06;3.85;;;2.83;;
71083;SDS011;58741;52.672;13.548;2023-08-20T02:02:38;4.57;;;3.05;;
71083;SDS011;58741;52.672;13.548;2023-08-20T02:05:04;3.42;;;2.42;;
71083;SDS011;58741;52.672;13.548;2023-08-20T02:07:30;3.15;;;2.50;;
71083;SDS011;58741;52.672;13.548;2023-08-20T02:09:58;3.25;;;2.40;;
71083;SDS011;58741;52.672;13.548;2023-08-20T02:12:24;2.35;;;2.10;;
71083;SDS011;58741;52.672;13.548;2023-08-20T02:14:50;5.55;;;3.08;;
71083;SDS011;58741;52.672;13.548;2023-08-20T02:17:20;4.78;;;3.13;;
71083;SDS011;58741;52.672;13.548;2023-08-20T02:19:46;2.65;;;2.15;;
71083;SDS011;58741;52.672;13.548;2023-08-20T02:22:11;3.10;;;2.35;;
71083;SDS011;58741;52.672;13.548;2023-08-20T02:24:37;4.00;;;2.70;;
71083;SDS011;58741;52.672;13.548;2023-08-20T02:27:03;4.20;;;2.90;;
71083;SDS011;58741;52.672;13.548;2023-08-20T02:29:28;3.15;;;2.40;;
71083;SDS011;58741;52.672;13.548;2023-08-20T02:31:54;2.95;;;2.05;;
71083;SDS011;58741;52.672;13.548;2023-08-20T02:34:20;4.40;;;2.40;;
71083;SDS011;58741;52.672;13.548;2023-08-20T02:36:46;3.70;;;2.50;;
71083;SDS011;58741;52.672;13.548;2023-08-20T02:39:13;4.30;;;2.53;;
71083;SDS011;58741;52.672;13.548;2023-08-20T02:41:40;3.00;;;2.28;;
71083;SDS011;58741;52.672;13.548;2023-08-20T02:44:08;3.13;;;2.30;;
71083;SDS011;58741;52.672;13.548;2023-08-20T02:46:33;2.22;;;1.90;;
71083;SDS011;58741;52.672;13.548;2023-08-20T02:48:59;2.47;;;1.65;;
71083;SDS011;58741;52.672;13.548;2023-08-20T02:51:26;2.55;;;1.98;;
71083;SDS011;58741;52.672;13.548;2023-08-20T02:53:52;2.20;;;2.00;;
71083;SDS011;58741;52.672;13.548;2023-08-20T02:56:18;2.88;;;2.15;;
71083;SDS011;58741;52.672;13.548;2023-08-20T02:58:43;2.92;;;2.13;;
71083;SDS011;58741;52.672;13.548;2023-08-20T03:01:19;3.15;;;2.05;;
71083;SDS011;58741;52.672;13.548;2023-08-20T03:03:46;2.92;;;2.13;;
71083;SDS011;58741;52.672;13.548;2023-08-20T03:06:12;3.67;;;2.40;;
71083;SDS011;58741;52.672;13.548;2023-08-20T03:08:37;5.32;;;2.15;;
71083;SDS011;58741;52.672;13.548;2023-08-20T03:11:03;2.38;;;2.13;;
71083;SDS011;58741;52.672;13.548;2023-08-20T03:13:29;3.28;;;1.92;;
71083;SDS011;58741;52.672;13.548;2023-08-20T03:15:54;5.25;;;2.08;;
71083;SDS011;58741;52.672;13.548;2023-08-20T03:18:20;5.13;;;2.38;;
71083;SDS011;58741;52.672;13.548;2023-08-20T03:20:45;3.25;;;2.33;;
71083;SDS011;58741;52.672;13.548;2023-08-20T03:23:11;3.08;;;2.13;;
71083;SDS011;58741;52.672;13.548;2023-08-20T03:25:37;2.33;;;1.98;;
71083;SDS011;58741;52.672;13.548;2023-08-20T03:28:04;2.47;;;1.90;;
71083;SDS011;58741;52.672;13.548;2023-08-20T03:30:30;2.75;;;2.05;;
71083;SDS011;58741;52.672;13.548;2023-08-20T03:32:56;2.67;;;2.08;;
71083;SDS011;58741;52.672;13.548;2023-08-20T03:35:23;2.00;;;1.60;;
71083;SDS011;58741;52.672;13.548;2023-08-20T03:37:48;3.95;;;2.22;;
71083;SDS011;58741;52.672;13.548;2023-08-20T03:40:14;2.17;;;1.90;;
71083;SDS011;58741;52.672;13.548;2023-08-20T03:42:41;2.60;;;1.92;;
71083;SDS011;58741;52.672;13.548;2023-08-20T03:45:08;3.47;;;2.47;;
71083;SDS011;58741;52.672;13.548;2023-08-20T03:47:34;3.08;;;2.53;;
71083;SDS011;58741;52.672;13.548;2023-08-20T03:50:01;3.10;;;1.98;;
71083;SDS011;58741;52.672;13.548;2023-08-20T03:52:27;3.28;;;2.22;;
71083;SDS011;58741;52.672;13.548;2023-08-20T03:54:53;2.53;;;1.85;;
71083;SDS011;58741;52.672;13.548;2023-08-20T03:57:18;3.38;;;2.17;;
71083;SDS011;58741;52.672;13.548;2023-08-20T03:59:44;2.70;;;1.95;;
71083;SDS011;58741;52.672;13.548;2023-08-20T04:02:12;2.00;;;1.75;;
71083;SDS011;58741;52.672;13.548;2023-08-20T04:04:38;3.70;;;1.58;;
71083;SDS011;58741;52.672;13.548;2023-08-20T04:07:04;2.28;;;1.60;;
71083;SDS011;58741;52.672;13.548;2023-08-20T04:09:32;2.28;;;1.85;;
71083;SDS011;58741;52.672;13.548;2023-08-20T04:11:58;3.00;;;1.98;;
71083;SDS011;58741;52.672;13.548;2023-08-20T04:14:24;2.88;;;2.25;;
71083;SDS011;58741;52.672;13.548;2023-08-20T04:16:51;2.78;;;2.20;;
71083;SDS011;58741;52.672;13.548;2023-08-20T04:19:16;2.85;;;2.33;;
71083;SDS011;58741;52.672;13.548;2023-08-20T04:21:42;4.35;;;3.08;;
71083;SDS011;58741;52.672;13.548;2023-08-20T04:24:08;2.40;;;2.10;;
71083;SDS011;58741;52.672;13.548;2023-08-20T04:26:33;3.42;;;2.30;;
71083;SDS011;58741;52.672;13.548;2023-08-20T04:28:59;2.92;;;2.05;;
71083;SDS011;58741;52.672;13.548;2023-08-20T04:31:25;2.03;;;1.83;;
71083;SDS011;58741;52.672;13.548;2023-08-20T04:33:57;2.75;;;2.03;;
71083;SDS011;58741;52.672;13.548;2023-08-20T04:36:33;3.72;;;2.25;;
71083;SDS011;58741;52.672;13.548;2023-08-20T04:38:59;3.38;;;1.90;;
71083;SDS011;58741;52.672;13.548;2023-08-20T04:41:25;1.92;;;1.67;;
71083;SDS011;58741;52.672;13.548;2023-08-20T04:43:50;2.47;;;1.70;;
71083;SDS011;58741;52.672;13.548;2023-08-20T04:46:17;1.58;;;1.42;;
71083;SDS011;58741;52.672;13.548;2023-08-20T04:48:44;2.72;;;1.88;;
71083;SDS011;58741;52.672;13.548;2023-08-20T04:51:09;2.67;;;1.83;;
71083;SDS011;58741;52.672;13.548;2023-08-20T04:53:35;2.45;;;1.40;;
71083;SDS011;58741;52.672;13.548;2023-08-20T04:56:01;1.80;;;1.50;;
71083;SDS011;58741;52.672;13.548;2023-08-20T04:58:27;4.00;;;1.88;;
71083;SDS011;58741;52.672;13.548;2023-08-20T05:00:53;3.15;;;1.73;;
71083;SDS011;58741;52.672;13.548;2023-08-20T05:03:20;2.00;;;1.50;;
71083;SDS011;58741;52.672;13.548;2023-08-20T05:05:49;2.30;;;1.42;;
71083;SDS011;58741;52.672;13.548;2023-08-20T05:08:15;1.50;;;1.23;;
71083;SDS011;58741;52.672;13.548;2023-08-20T05:10:41;2.78;;;1.63;;
71083;SDS011;58741;52.672;13.548;2023-08-20T05:13:07;3.70;;;2.15;;
71083;SDS011;58741;52.672;13.548;2023-08-20T05:15:33;1.90;;;1.50;;
71083;SDS011;58741;52.672;13.548;2023-08-20T05:18:00;2.40;;;1.88;;
71083;SDS011;58741;52.672;13.548;2023-08-20T05:20:25;1.98;;;1.65;;
71083;SDS011;58741;52.672;13.548;2023-08-20T05:22:53;2.47;;;1.85;;
71083;SDS011;58741;52.672;13.548;2023-08-20T05:25:18;2.95;;;1.65;;
71083;SDS011;58741;52.672;13.548;2023-08-20T05:27:45;2.72;;;2.03;;
71083;SDS011;58741;52.672;13.548;2023-08-20T05:30:11;1.63;;;1.33;;
71083;SDS011;58741;52.672;13.548;2023-08-20T05:32:37;2.55;;;1.83;;
71083;SDS011;58741;52.672;13.548;2023-08-20T05:35:03;3.17;;;1.70;;
71083;SDS011;58741;52.672;13.548;2023-08-20T05:37:29;2.13;;;1.55;;
71083;SDS011;58741;52.672;13.548;2023-08-20T05:39:55;2.72;;;1.92;;
71083;SDS011;58741;52.672;13.548;2023-08-20T05:42:21;3.20;;;2.20;;
71083;SDS011;58741;52.672;13.548;2023-08-20T05:44:52;2.10;;;1.65;;
71083;SDS011;58741;52.672;13.548;2023-08-20T05:47:23;2.45;;;2.10;;
71083;SDS011;58741;52.672;13.548;2023-08-20T05:49:48;2.88;;;1.80;;
71083;SDS011;58741;52.672;13.548;2023-08-20T05:52:14;2.38;;;1.88;;
71083;SDS011;58741;52.672;13.548;2023-08-20T05:54:42;2.53;;;1.70;;
71083;SDS011;58741;52.672;13.548;2023-08-20T05:57:07;2.15;;;1.15;;
71083;SDS011;58741;52.672;13.548;2023-08-20T05:59:33;3.22;;;1.63;;
71083;SDS011;58741;52.672;13.548;2023-08-20T06:02:00;2.45;;;1.60;;
71083;SDS011;58741;52.672;13.548;2023-08-20T06:04:27;4.75;;;1.63;;
71083;SDS011;58741;52.672;13.548;2023-08-20T06:06:52;2.92;;;1.98;;
71083;SDS011;58741;52.672;13.548;2023-08-20T06:09:18;2.50;;;2.30;;
71083;SDS011;58741;52.672;13.548;2023-08-20T06:11:43;2.75;;;1.75;;
71083;SDS011;58741;52.672;13.548;2023-08-20T06:14:09;2.92;;;2.22;;
71083;SDS011;58741;52.672;13.548;2023-08-20T06:16:35;2.65;;;1.98;;
71083;SDS011;58741;52.672;13.548;2023-08-20T06:19:00;1.70;;;1.45;;
71083;SDS011;58741;52.672;13.548;2023-08-20T06:21:26;4.60;;;2.08;;
71083;SDS011;58741;52.672;13.548;2023-08-20T06:23:51;2.58;;;1.83;;
71083;SDS011;58741;52.672;13.548;2023-08-20T06:26:17;2.42;;;1.83;;
71083;SDS011;58741;52.672;13.548;2023-08-20T06:28:42;1.70;;;1.45;;
71083;SDS011;58741;52.672;13.548;2023-08-20T06:31:08;3.05;;;1.90;;
71083;SDS011;58741;52.672;13.548;2023-08-20T06:33:33;2.75;;;1.88;;
71083;SDS011;58741;52.672;13.548;2023-08-20T06:35:59;3.30;;;2.03;;
71083;SDS011;58741;52.672;13.548;2023-08-20T06:38:25;2.70;;;2.05;;
71083;SDS011;58741;52.672;13.548;2023-08-20T06:40:50;3.08;;;2.10;;
71083;SDS011;58741;52.672;13.548;2023-08-20T06:43:16;3.72;;;2.30;;
71083;SDS011;58741;52.672;13.548;2023-08-20T06:45:41;2.45;;;2.03;;
71083;SDS011;58741;52.672;13.548;2023-08-20T06:48:07;4.28;;;1.88;;
71083;SDS011;58741;52.672;13.548;2023-08-20T06:50:33;2.33;;;2.00;;
71083;SDS011;58741;52.672;13.548;2023-08-20T06:52:58;2.50;;;2.17;;
71083;SDS011;58741;52.672;13.548;2023-08-20T06:55:24;3.00;;;2.00;;
71083;SDS011;58741;52.672;13.548;2023-08-20T06:57:49;3.15;;;2.00;;
71083;SDS011;58741;52.672;13.548;2023-08-20T07:00:15;2.72;;;1.83;;
71083;SDS011;58741;52.672;13.548;2023-08-20T07:02:41;2.78;;;1.73;;
71083;SDS011;58741;52.672;13.548;2023-08-20T07:05:06;4.07;;;1.98;;
71083;SDS011;58741;52.672;13.548;2023-08-20T07:07:34;2.20;;;2.00;;
71083;SDS011;58741;52.672;13.548;2023-08-20T07:10:00;2.63;;;1.77;;
71083;SDS011;58741;52.672;13.548;2023-08-20T07:12:25;2.08;;;1.77;;
71083;SDS011;58741;52.672;13.548;2023-08-20T07:14:51;1.88;;;1.67;;
71083;SDS011;58741;52.672;13.548;2023-08-20T07:17:17;3.53;;;2.13;;
71083;SDS011;58741;52.672;13.548;2023-08-20T07:19:42;2.97;;;2.25;;
71083;SDS011;58741;52.672;13.548;2023-08-20T07:22:08;2.13;;;1.85;;
71083;SDS011;58741;52.672;13.548;2023-08-20T07:24:33;1.98;;;1.60;;
71083;SDS011;58741;52.672;13.548;2023-08-20T07:27:00;2.10;;;1.60;;
71083;SDS011;58741;52.672;13.548;2023-08-20T07:29:28;3.65;;;2.13;;
71083;SDS011;58741;52.672;13.548;2023-08-20T07:31:55;3.70;;;1.88;;
71083;SDS011;58741;52.672;13.548;2023-08-20T07:34:21;2.55;;;1.65;;
71083;SDS011;58741;52.672;13.548;2023-08-20T07:36:46;2.63;;;1.95;;
71083;SDS011;58741;52.672;13.548;2023-08-20T07:39:12;3.53;;;2.22;;
71083;SDS011;58741;52.672;13.548;2023-08-20T07:41:39;3.05;;;2.25;;
71083;SDS011;58741;52.672;13.548;2023-08-20T07:44:05;2.67;;;1.90;;
71083;SDS011;58741;52.672;13.548;2023-08-20T07:46:31;2.50;;;2.13;;
71083;SDS011;58741;52.672;13.548;2023-08-20T07:48:56;3.58;;;1.85;;
71083;SDS011;58741;52.672;13.548;2023-08-20T07:51:22;2.85;;;2.10;;
71083;SDS011;58741;52.672;13.548;2023-08-20T07:53:48;3.30;;;1.52;;
71083;SDS011;58741;52.672;13.548;2023-08-20T07:56:13;2.95;;;2.47;;
71083;SDS011;58741;52.672;13.548;2023-08-20T07:58:39;3.30;;;2.63;;
71083;SDS011;58741;52.672;13.548;2023-08-20T08:01:04;3.28;;;2.08;;
71083;SDS011;58741;52.672;13.548;2023-08-20T08:03:30;3.92;;;1.70;;
71083;SDS011;58741;52.672;13.548;2023-08-20T08:05:56;3.40;;;2.05;;
71083;SDS011;58741;52.672;13.548;2023-08-20T08:08:21;2.83;;;1.95;;
71083;SDS011;58741;52.672;13.548;2023-08-20T08:10:47;2.80;;;2.33;;
71083;SDS011;58741;52.672;13.548;2023-08-20T08:13:19;2.05;;;1.85;;
71083;SDS011;58741;52.672;13.548;2023-08-20T08:15:45;3.20;;;2.35;;
71083;SDS011;58741;52.672;13.548;2023-08-20T08:18:11;2.58;;;1.83;;
71083;SDS011;58741;52.672;13.548;2023-08-20T08:20:37;2.78;;;1.88;;
71083;SDS011;58741;52.672;13.548;2023-08-20T08:23:03;2.92;;;1.73;;
71083;SDS011;58741;52.672;13.548;2023-08-20T08:25:28;1.60;;;1.50;;
71083;SDS011;58741;52.672;13.548;2023-08-20T08:27:55;1.95;;;1.70;;
71083;SDS011;58741;52.672;13.548;2023-08-20T08:30:21;2.25;;;1.70;;
71083;SDS011;58741;52.672;13.548;2023-08-20T08:32:47;2.38;;;1.88;;
71083;SDS011;58741;52.672;13.548;2023-08-20T08:35:12;3.30;;;1.70;;
71083;SDS011;58741;52.672;13.548;2023-08-20T08:37:38;1.80;;;1.50;;
71083;SDS011;58741;52.672;13.548;2023-08-20T08:40:04;1.73;;;1.63;;
71083;SDS011;58741;52.672;13.548;2023-08-20T08:42:33;1.15;;;1.02;;
71083;SDS011;58741;52.672;13.548;2023-08-20T08:45:02;2.05;;;1.60;;
71083;SDS011;58741;52.672;13.548;2023-08-20T08:47:29;3.47;;;1.88;;
71083;SDS011;58741;52.672;13.548;2023-08-20T08:49:55;2.80;;;1.90;;
71083;SDS011;58741;52.672;13.548;2023-08-20T08:52:25;1.75;;;1.60;;
71083;SDS011;58741;52.672;13.548;2023-08-20T08:54:51;1.77;;;1.63;;
71083;SDS011;58741;52.672;13.548;2023-08-20T08:57:17;4.00;;;2.50;;
71083;SDS011;58741;52.672;13.548;2023-08-20T08:59:44;3.67;;;2.15;;
71083;SDS011;58741;52.672;13.548;2023-08-20T09:02:10;6.60;;;2.80;;
71083;SDS011;58741;52.672;13.548;2023-08-20T09:04:42;5.10;;;2.40;;
71083;SDS011;58741;52.672;13.548;2023-08-20T09:07:12;3.13;;;1.90;;
71083;SDS011;58741;52.672;13.548;2023-08-20T09:09:41;2.35;;;1.63;;
71083;SDS011;58741;52.672;13.548;2023-08-20T09:12:16;2.75;;;1.90;;
71083;SDS011;58741;52.672;13.548;2023-08-20T09:14:47;1.50;;;1.40;;
71083;SDS011;58741;52.672;13.548;2023-08-20T09:17:16;1.65;;;1.27;;
71083;SDS011;58741;52.672;13.548;2023-08-20T09:19:43;2.55;;;1.65;;
71083;SDS011;58741;52.672;13.548;2023-08-20T09:22:12;1.85;;;1.70;;
71083;SDS011;58741;52.672;13.548;2023-08-20T09:24:40;3.63;;;2.22;;
71083;SDS011;58741;52.672;13.548;2023-08-20T09:27:07;2.00;;;1.48;;
71083;SDS011;58741;52.672;13.548;2023-08-20T09:29:33;2.42;;;1.85;;
71083;SDS011;58741;52.672;13.548;2023-08-20T09:32:09;2.22;;;1.77;;
71083;SDS011;58741;52.672;13.548;2023-08-20T09:34:50;2.58;;;1.85;;
71083;SDS011;58741;52.672;13.548;2023-08-20T09:37:17;2.50;;;1.60;;
71083;SDS011;58741;52.672;13.548;2023-08-20T09:39:47;1.98;;;1.75;;
71083;SDS011;58741;52.672;13.548;2023-08-20T09:42:13;2.92;;;1.80;;
71083;SDS011;58741;52.672;13.548;2023-08-20T09:44:40;2.78;;;1.90;;
71083;SDS011;58741;52.672;13.548;2023-08-20T09:47:13;2.22;;;1.83;;
71083;SDS011;58741;52.672;13.548;2023-08-20T09:49:40;1.92;;;1.48;;
71083;SDS011;58741;52.672;13.548;2023-08-20T09:52:10;2.30;;;1.63;;
71083;SDS011;58741;52.672;13.548;2023-08-20T09:54:59;2.45;;;2.25;;
71083;SDS011;58741;52.672;13.548;2023-08-20T09:59:59;2.83;;;1.80;;
71083;SDS011;58741;52.672;13.548;2023-08-20T10:02:26;2.53;;;1.90;;
71083;SDS011;58741;52.672;13.548;2023-08-20T10:04:52;2.33;;;1.77;;
71083;SDS011;58741;52.672;13.548;2023-08-20T10:07:18;2.10;;;1.88;;
71083;SDS011;58741;52.672;13.548;2023-08-20T10:09:43;2.20;;;1.92;;
71083;SDS011;58741;52.672;13.548;2023-08-20T10:12:13;3.58;;;1.80;;
71083;SDS011;58741;52.672;13.548;2023-08-20T10:14:40;2.00;;;1.60;;
71083;SDS011;58741;52.672;13.548;2023-08-20T10:17:09;2.08;;;1.88;;
71083;SDS011;58741;52.672;13.548;2023-08-20T10:19:36;2.10;;;1.92;;
71083;SDS011;58741;52.672;13.548;2023-08-20T10:22:03;2.72;;;2.17;;
71083;SDS011;58741;52.672;13.548;2023-08-20T10:24:39;2.60;;;2.10;;
71083;SDS011;58741;52.672;13.548;2023-08-20T10:27:28;2.22;;;2.03;;
71083;SDS011;58741;52.672;13.548;2023-08-20T10:29:58;2.97;;;2.45;;
71083;SDS011;58741;52.672;13.548;2023-08-20T10:32:44;2.50;;;2.10;;
71083;SDS011;58741;52.672;13.548;2023-08-20T10:35:16;3.28;;;2.20;;
71083;SDS011;58741;52.672;13.548;2023-08-20T10:41:04;1.88;;;1.50;;
71083;SDS011;58741;52.672;13.548;2023-08-20T10:44:05;2.95;;;2.30;;
71083;SDS011;58741;52.672;13.548;2023-08-20T10:46:20;2.47;;;1.50;;
71083;SDS011;58741;52.672;13.548;2023-08-20T10:48:47;1.98;;;1.70;;
71083;SDS011;58741;52.672;13.548;2023-08-20T10:51:32;1.70;;;1.50;;
71083;SDS011;58741;52.672;13.548;2023-08-20T11:01:51;1.60;;;1.50;;
71083;SDS011;58741;52.672;13.548;2023-08-20T11:04:22;1.70;;;1.60;;
71083;SDS011;58741;52.672;13.548;2023-08-20T11:06:58;1.40;;;1.30;;
71083;SDS011;58741;52.672;13.548;2023-08-20T11:09:25;2.30;;;1.25;;
71083;SDS011;58741;52.672;13.548;2023-08-20T11:11:53;0.95;;;0.95;;
71083;SDS011;58741;52.672;13.548;2023-08-20T11:14:20;0.95;;;0.93;;
71083;SDS011;58741;52.672;13.548;2023-08-20T11:16:47;2.08;;;1.13;;
71083;SDS011;58741;52.672;13.548;2023-08-20T11:19:14;2.13;;;1.27;;
71083;SDS011;58741;52.672;13.548;2023-08-20T11:21:43;1.45;;;1.30;;
71083;SDS011;58741;52.672;13.548;2023-08-20T11:24:09;0.98;;;0.98;;
71083;SDS011;58741;52.672;13.548;2023-08-20T11:26:38;1.30;;;1.15;;
71083;SDS011;58741;52.672;13.548;2023-08-20T11:29:05;1.20;;;1.00;;
71083;SDS011;58741;52.672;13.548;2023-08-20T11:31:31;1.00;;;0.95;;
71083;SDS011;58741;52.672;13.548;2023-08-20T11:33:57;1.10;;;1.00;;
71083;SDS011;58741;52.672;13.548;2023-08-20T11:36:23;1.17;;;0.95;;
71083;SDS011;58741;52.672;13.548;2023-08-20T11:38:49;0.93;;;0.93;;
71083;SDS011;58741;52.672;13.548;2023-08-20T11:41:17;0.90;;;0.85;;
71083;SDS011;58741;52.672;13.548;2023-08-20T11:43:44;0.90;;;0.90;;
71083;SDS011;58741;52.672;13.548;2023-08-20T11:46:14;0.77;;;0.77;;
71083;SDS011;58741;52.672;13.548;2023-08-20T11:51:29;0.80;;;0.80;;
71083;SDS011;58741;52.672;13.548;2023-08-20T11:54:18;1.02;;;0.93;;
71083;SDS011;58741;52.672;13.548;2023-08-20T11:59:13;0.80;;;0.80;;
71083;SDS011;58741;52.672;13.548;2023-08-20T12:01:40;0.70;;;0.70;;
71083;SDS011;58741;52.672;13.548;2023-08-20T12:04:09;2.78;;;0.80;;
71083;SDS011;58741;52.672;13.548;2023-08-20T12:06:36;1.27;;;0.70;;
71083;SDS011;58741;52.672;13.548;2023-08-20T12:09:17;0.90;;;0.90;;
71083;SDS011;58741;52.672;13.548;2023-08-20T12:11:51;2.07;;;0.90;;
71083;SDS011;58741;52.672;13.548;2023-08-20T12:14:20;2.28;;;0.95;;
71083;SDS011;58741;52.672;13.548;2023-08-20T12:16:45;1.23;;;0.93;;
71083;SDS011;58741;52.672;13.548;2023-08-20T12:19:12;0.60;;;0.60;;
71083;SDS011;58741;52.672;13.548;2023-08-20T12:21:38;0.77;;;0.75;;
71083;SDS011;58741;52.672;13.548;2023-08-20T12:24:05;0.57;;;0.57;;
71083;SDS011;58741;52.672;13.548;2023-08-20T12:26:31;0.82;;;0.75;;
71083;SDS011;58741;52.672;13.548;2023-08-20T12:28:57;0.95;;;0.90;;
71083;SDS011;58741;52.672;13.548;2023-08-20T12:31:22;1.00;;;0.90;;
71083;SDS011;58741;52.672;13.548;2023-08-20T12:33:48;0.52;;;0.52;;
71083;SDS011;58741;52.672;13.548;2023-08-20T12:36:13;0.85;;;0.75;;
71083;SDS011;58741;52.672;13.548;2023-08-20T12:38:39;0.70;;;0.70;;
71083;SDS011;58741;52.672;13.548;2023-08-20T12:41:06;0.77;;;0.70;;
71083;SDS011;58741;52.672;13.548;2023-08-20T12:43:32;0.60;;;0.60;;
71083;SDS011;58741;52.672;13.548;2023-08-20T12:45:57;0.50;;;0.50;;
71083;SDS011;58741;52.672;13.548;2023-08-20T12:48:23;2.17;;;0.70;;
71083;SDS011;58741;52.672;13.548;2023-08-20T12:50:48;0.68;;;0.65;;
71083;SDS011;58741;52.672;13.548;2023-08-20T12:53:14;0.60;;;0.60;;
71083;SDS011;58741;52.672;13.548;2023-08-20T12:55:40;0.68;;;0.68;;
71083;SDS011;58741;52.672;13.548;2023-08-20T12:58:06;1.08;;;1.00;;
71083;SDS011;58741;52.672;13.548;2023-08-20T13:00:32;0.82;;;0.82;;
71083;SDS011;58741;52.672;13.548;2023-08-20T13:02:58;0.70;;;0.70;;
71083;SDS011;58741;52.672;13.548;2023-08-20T13:05:24;0.85;;;0.73;;
71083;SDS011;58741;52.672;13.548;2023-08-20T13:07:51;0.70;;;0.70;;
71083;SDS011;58741;52.672;13.548;2023-08-20T13:10:17;1.08;;;0.98;;
71083;SDS011;58741;52.672;13.548;2023-08-20T13:12:53;1.20;;;0.70;;
71083;SDS011;58741;52.672;13.548;2023-08-20T13:15:19;0.68;;;0.68;;
71083;SDS011;58741;52.672;13.548;2023-08-20T13:17:47;0.80;;;0.80;;
71083;SDS011;58741;52.672;13.548;2023-08-20T13:20:13;0.77;;;0.77;;
71083;SDS011;58741;52.672;13.548;2023-08-20T13:22:40;0.82;;;0.82;;
71083;SDS011;58741;52.672;13.548;2023-08-20T13:25:05;0.40;;;0.40;;
71083;SDS011;58741;52.672;13.548;2023-08-20T13:27:31;0.70;;;0.70;;
71083;SDS011;58741;52.672;13.548;2023-08-20T13:29:57;0.85;;;0.85;;
71083;SDS011;58741;52.672;13.548;2023-08-20T13:32:23;0.82;;;0.50;;
71083;SDS011;58741;52.672;13.548;2023-08-20T13:34:49;1.63;;;0.70;;
71083;SDS011;58741;52.672;13.548;2023-08-20T13:37:15;1.60;;;0.80;;
71083;SDS011;58741;52.672;13.548;2023-08-20T13:39:41;0.60;;;0.60;;
71083;SDS011;58741;52.672;13.548;2023-08-20T13:42:06;0.40;;;0.40;;
71083;SDS011;58741;52.672;13.548;2023-08-20T13:44:32;0.73;;;0.73;;
71083;SDS011;58741;52.672;13.548;2023-08-20T13:46:58;0.65;;;0.57;;
71083;SDS011;58741;52.672;13.548;2023-08-20T13:49:24;0.75;;;0.68;;
71083;SDS011;58741;52.672;13.548;2023-08-20T13:51:50;0.47;;;0.47;;
71083;SDS011;58741;52.672;13.548;2023-08-20T13:54:15;0.47;;;0.47;;
71083;SDS011;58741;52.672;13.548;2023-08-20T13:56:41;0.57;;;0.57;;
71083;SDS011;58741;52.672;13.548;2023-08-20T13:59:08;0.50;;;0.50;;
71083;SDS011;58741;52.672;13.548;2023-08-20T14:01:34;0.68;;;0.50;;
71083;SDS011;58741;52.672;13.548;2023-08-20T14:04:00;0.40;;;0.40;;
71083;SDS011;58741;52.672;13.548;2023-08-20T14:06:25;1.10;;;0.50;;
71083;SDS011;58741;52.672;13.548;2023-08-20T14:08:51;0.40;;;0.40;;
71083;SDS011;58741;52.672;13.548;2023-08-20T14:11:16;0.60;;;0.60;;
71083;SDS011;58741;52.672;13.548;2023-08-20T14:13:42;0.60;;;0.60;;
71083;SDS011;58741;52.672;13.548;2023-08-20T14:16:08;0.50;;;0.50;;
71083;SDS011;58741;52.672;13.548;2023-08-20T14:18:33;0.47;;;0.47;;
71083;SDS011;58741;52.672;13.548;2023-08-20T14:20:59;0.68;;;0.68;;
71083;SDS011;58741;52.672;13.548;2023-08-20T14:23:25;0.50;;;0.50;;
71083;SDS011;58741;52.672;13.548;2023-08-20T14:25:50;0.90;;;0.60;;
71083;SDS011;58741;52.672;13.548;2023-08-20T14:28:16;0.73;;;0.50;;
71083;SDS011;58741;52.672;13.548;2023-08-20T14:30:41;0.50;;;0.50;;
71083;SDS011;58741;52.672;13.548;2023-08-20T14:33:07;0.60;;;0.60;;
71083;SDS011;58741;52.672;13.548;2023-08-20T14:35:32;0.65;;;0.65;;
71083;SDS011;58741;52.672;13.548;2023-08-20T14:37:58;0.60;;;0.60;;
71083;SDS011;58741;52.672;13.548;2023-08-20T14:40:24;1.10;;;0.80;;
71083;SDS011;58741;52.672;13.548;2023-08-20T14:42:50;0.50;;;0.50;;
71083;SDS011;58741;52.672;13.548;2023-08-20T14:45:15;0.50;;;0.50;;
71083;SDS011;58741;52.672;13.548;2023-08-20T14:47:41;0.70;;;0.70;;
71083;SDS011;58741;52.672;13.548;2023-08-20T14:50:07;3.17;;;0.68;;
71083;SDS011;58741;52.672;13.548;2023-08-20T14:52:33;0.55;;;0.55;;
71083;SDS011;58741;52.672;13.548;2023-08-20T14:54:59;0.77;;;0.70;;
71083;SDS011;58741;52.672;13.548;2023-08-20T14:57:25;0.75;;;0.75;;
71083;SDS011;58741;52.672;13.548;2023-08-20T14:59:51;0.50;;;0.50;;